Time;durP1;ratioP1;P1;durP2;ratioP2;P2;SDS_P1;SDS_P2;PMS_P1;PMS_P2;Temp;Humidity;BMP_temperature;BMP_pressure;BME280_temperature;BME280_humidity;BME280_pressure;Samples;Min_cycle;Max_cycle;Signal;HPM_P1;HPM_P2
2021/09/09 00:00:06;;;;;;;10.77;8.17;;;;;;;14.55;100.00;101082.00;5053627;28;20471;-68
2021/09/09 00:02:34;;;;;;;16.90;8.17;;;;;;;14.53;100.00;101086.97;5055578;28;20442;-69
2021/09/09 00:05:01;;;;;;;9.63;7.17;;;;;;;14.48;100.00;101087.94;5056151;28;20454;-68
2021/09/09 00:07:27;;;;;;;18.97;7.53;;;;;;;14.45;100.00;101082.28;5075014;28;20445;-68
2021/09/09 00:09:54;;;;;;;20.60;7.03;;;;;;;14.34;100.00;101077.09;5076064;28;20986;-68
2021/09/09 00:12:20;;;;;;;10.87;7.60;;;;;;;14.27;100.00;101075.94;5075379;28;20494;-67
2021/09/09 00:14:46;;;;;;;13.87;8.37;;;;;;;14.27;100.00;101081.38;5076412;28;20484;-68
2021/09/09 00:17:13;;;;;;;13.83;8.00;;;;;;;14.28;100.00;101072.88;5060510;28;20442;-69
2021/09/09 00:19:41;;;;;;;13.10;7.90;;;;;;;14.31;100.00;101068.75;5066626;28;20461;-69
2021/09/09 00:22:07;;;;;;;10.10;8.07;;;;;;;14.25;100.00;101073.50;5075613;28;20536;-68
2021/09/09 00:24:34;;;;;;;12.50;8.40;;;;;;;14.28;100.00;101067.44;5069660;28;20438;-68
2021/09/09 00:27:00;;;;;;;10.90;7.03;;;;;;;14.29;100.00;101066.31;5057087;28;20453;-69
2021/09/09 00:29:27;;;;;;;12.03;8.03;;;;;;;14.12;100.00;101064.34;5070727;28;20461;-68
2021/09/09 00:31:54;;;;;;;14.27;8.77;;;;;;;14.18;100.00;101062.28;5075746;28;20445;-68
2021/09/09 00:34:20;;;;;;;12.90;7.47;;;;;;;14.22;100.00;101063.25;5071102;28;20481;-69
2021/09/09 00:36:48;;;;;;;12.47;7.23;;;;;;;14.27;100.00;101065.03;5055914;28;20450;-68
2021/09/09 00:39:14;;;;;;;14.30;8.37;;;;;;;14.25;100.00;101061.81;5056948;28;20519;-68
2021/09/09 00:41:41;;;;;;;11.93;6.67;;;;;;;14.22;100.00;101063.25;5055854;28;20450;-68
2021/09/09 00:44:20;;;;;;;8.33;5.90;;;;;;;14.24;100.00;101058.28;5057704;28;20450;-68
2021/09/09 00:46:57;;;;;;;12.20;8.47;;;;;;;14.24;100.00;101057.47;5075934;28;20437;-68
2021/09/09 00:49:23;;;;;;;10.70;7.57;;;;;;;14.18;100.00;101061.47;5097094;22;20519;-73
2021/09/09 00:51:51;;;;;;;10.53;7.40;;;;;;;14.14;100.00;101056.63;5075542;28;20437;-74
2021/09/09 00:54:18;;;;;;;9.77;7.30;;;;;;;13.97;100.00;101067.44;5071389;28;20474;-74
2021/09/09 00:56:44;;;;;;;11.00;7.30;;;;;;;13.99;100.00;101053.50;5055104;28;20974;-74
2021/09/09 00:59:11;;;;;;;11.40;7.00;;;;;;;13.93;100.00;101054.75;5055265;28;20841;-73
2021/09/09 01:01:37;;;;;;;11.30;7.27;;;;;;;13.86;100.00;101057.94;5064676;28;20461;-74
2021/09/09 01:04:04;;;;;;;10.20;6.73;;;;;;;13.90;100.00;101050.75;5073816;28;20441;-74
2021/09/09 01:06:30;;;;;;;8.67;6.90;;;;;;;13.93;100.00;101052.03;5054962;28;20438;-74
2021/09/09 01:08:59;;;;;;;9.17;6.50;;;;;;;13.98;100.00;101052.69;5055101;28;20462;-74
2021/09/09 01:11:25;;;;;;;8.97;6.03;;;;;;;13.98;100.00;101044.53;5054971;28;20442;-74
2021/09/09 01:13:53;;;;;;;12.37;8.70;;;;;;;14.00;100.00;101047.75;5054900;28;20505;-74
2021/09/09 01:16:19;;;;;;;12.17;9.10;;;;;;;13.89;100.00;101043.69;5054986;28;20438;-74
2021/09/09 01:18:46;;;;;;;9.40;6.60;;;;;;;13.88;100.00;101037.44;5054839;28;20449;-74
2021/09/09 01:21:12;;;;;;;14.13;8.60;;;;;;;13.93;100.00;101041.94;5055011;28;20453;-74
2021/09/09 01:23:41;;;;;;;8.70;6.53;;;;;;;13.86;100.00;101042.41;5054629;28;20951;-75
2021/09/09 01:26:08;;;;;;;12.77;8.20;;;;;;;13.95;100.00;101047.09;5072215;28;20441;-74
2021/09/09 01:28:35;;;;;;;9.80;6.67;;;;;;;13.94;100.00;101043.53;5072794;28;20449;-74
2021/09/09 01:31:01;;;;;;;11.40;7.67;;;;;;;13.98;100.00;101041.81;5074707;28;20484;-74
2021/09/09 01:33:28;;;;;;;11.43;7.70;;;;;;;13.94;100.00;101035.38;5074368;28;20489;-73
2021/09/09 01:35:54;;;;;;;10.07;6.57;;;;;;;13.95;100.00;101039.72;5058293;28;20944;-73
2021/09/09 01:38:21;;;;;;;15.57;7.90;;;;;;;13.93;100.00;101035.69;5054617;28;20450;-74
2021/09/09 01:40:48;;;;;;;10.10;7.20;;;;;;;13.91;100.00;101041.47;5054543;28;20466;-73
2021/09/09 01:43:16;;;;;;;12.10;6.93;;;;;;;13.87;100.00;101033.13;5055701;28;20442;-72
2021/09/09 01:45:43;;;;;;;9.80;6.23;;;;;;;13.87;100.00;101035.84;5059525;28;20860;-73
2021/09/09 01:48:10;;;;;;;15.37;8.37;;;;;;;13.89;100.00;101040.97;5054509;28;20437;-73
2021/09/09 01:50:37;;;;;;;16.37;9.23;;;;;;;13.84;100.00;101033.72;5053843;28;20470;-73
2021/09/09 01:53:03;;;;;;;11.63;6.93;;;;;;;13.79;100.00;101039.31;5055397;28;20450;-73
2021/09/09 01:55:29;;;;;;;13.40;8.20;;;;;;;13.69;100.00;101036.06;5054253;28;20545;-71
2021/09/09 01:57:56;;;;;;;13.03;7.43;;;;;;;13.59;100.00;101034.38;5054333;28;20445;-71
2021/09/09 02:00:24;;;;;;;12.37;7.50;;;;;;;13.53;100.00;101043.78;5055649;28;20523;-70
2021/09/09 02:02:50;;;;;;;13.83;7.97;;;;;;;13.44;100.00;101041.00;5064386;28;20470;-73
2021/09/09 02:05:16;;;;;;;9.97;7.40;;;;;;;13.46;100.00;101035.22;5063598;28;20442;-73
2021/09/09 02:07:43;;;;;;;11.03;8.53;;;;;;;13.50;100.00;101041.66;5064465;28;20446;-73
2021/09/09 02:10:10;;;;;;;12.53;7.17;;;;;;;13.50;100.00;101041.66;5054044;28;20462;-73
2021/09/09 02:12:36;;;;;;;8.63;6.60;;;;;;;13.57;100.00;101040.13;5061121;28;20450;-73
2021/09/09 02:15:04;;;;;;;12.30;7.53;;;;;;;13.59;100.00;101043.34;5073889;28;20484;-73
2021/09/09 02:17:31;;;;;;;9.07;6.27;;;;;;;13.58;100.00;101030.84;5073227;28;20950;-73
2021/09/09 02:19:58;;;;;;;12.43;7.50;;;;;;;13.65;100.00;101032.34;5073492;28;20974;-73
2021/09/09 02:22:24;;;;;;;14.40;6.10;;;;;;;13.64;100.00;101028.81;5071501;28;20445;-73
2021/09/09 02:24:51;;;;;;;10.17;6.30;;;;;;;13.68;100.00;101037.16;5072707;28;20442;-73
2021/09/09 02:27:17;;;;;;;11.87;7.27;;;;;;;13.66;100.00;101028.50;5073748;28;20543;-73
2021/09/09 02:29:44;;;;;;;9.73;7.23;;;;;;;13.69;100.00;101039.56;5072933;28;20479;-73
2021/09/09 02:32:10;;;;;;;12.30;7.03;;;;;;;13.66;100.00;101026.56;5073302;28;20441;-73
2021/09/09 02:34:38;;;;;;;12.50;6.40;;;;;;;13.61;100.00;101022.06;5054311;28;20481;-73
2021/09/09 02:37:05;;;;;;;9.10;6.20;;;;;;;13.59;100.00;101028.91;5067750;28;20447;-73
2021/09/09 02:39:32;;;;;;;9.07;6.77;;;;;;;13.62;100.00;101031.03;5053514;28;20466;-73
2021/09/09 02:41:58;;;;;;;14.40;7.80;;;;;;;13.65;100.00;101016.81;5053461;28;20821;-73
2021/09/09 02:44:25;;;;;;;8.40;4.90;;;;;;;13.64;100.00;101023.38;5068213;28;20437;-73
2021/09/09 02:46:51;;;;;;;16.23;7.40;;;;;;;13.61;100.00;101013.91;5073414;28;20448;-73
2021/09/09 02:49:18;;;;;;;10.80;6.63;;;;;;;13.58;100.00;101019.16;5073173;28;20473;-73
2021/09/09 02:51:46;;;;;;;8.47;6.13;;;;;;;13.60;100.00;101020.47;5072742;28;20969;-74
2021/09/09 02:54:12;;;;;;;12.80;7.53;;;;;;;13.57;100.00;101023.78;5057994;28;20478;-73
2021/09/09 02:56:39;;;;;;;11.10;7.00;;;;;;;13.49;100.00;101012.84;5053128;28;20446;-73
2021/09/09 02:59:05;;;;;;;9.57;5.40;;;;;;;13.37;100.00;101007.97;5053092;28;20454;-73
2021/09/09 03:01:31;;;;;;;14.13;6.77;;;;;;;13.27;100.00;101011.72;5057205;28;20461;-73
2021/09/09 03:03:58;;;;;;;9.87;5.87;;;;;;;13.28;100.00;101005.19;5053205;28;20442;-73
2021/09/09 03:06:24;;;;;;;9.07;6.03;;;;;;;13.21;100.00;101002.06;5068701;28;20448;-73
2021/09/09 03:08:52;;;;;;;13.30;8.93;;;;;;;13.23;100.00;101005.28;5072369;28;20449;-73
2021/09/09 03:11:18;;;;;;;8.90;6.90;;;;;;;13.26;100.00;100996.53;5059991;28;20446;-73
2021/09/09 03:13:45;;;;;;;12.80;7.13;;;;;;;13.31;100.00;100999.13;5057470;28;20452;-74
2021/09/09 03:16:11;;;;;;;12.27;7.17;;;;;;;13.33;100.00;100998.81;5053031;28;20458;-73
2021/09/09 03:18:38;;;;;;;11.90;7.03;;;;;;;13.22;100.00;101003.69;5053034;28;20446;-73
2021/09/09 03:21:04;;;;;;;11.03;5.80;;;;;;;13.25;100.00;100994.94;5063035;28;20465;-73
2021/09/09 03:23:31;;;;;;;11.60;5.53;;;;;;;13.28;100.00;101001.66;5072870;28;20468;-73
2021/09/09 03:25:58;;;;;;;10.57;7.37;;;;;;;13.26;100.00;100993.81;5060369;28;20450;-73
2021/09/09 03:28:25;;;;;;;9.30;5.80;;;;;;;13.29;100.00;100992.41;5052900;28;20839;-73
2021/09/09 03:30:51;;;;;;;10.33;6.00;;;;;;;13.22;100.00;100991.97;5060931;28;20468;-73
2021/09/09 03:33:18;;;;;;;9.97;6.40;;;;;;;13.21;100.00;100991.19;5071757;28;20457;-73
2021/09/09 03:35:44;;;;;;;11.40;6.87;;;;;;;13.20;100.00;100991.50;5054602;28;20489;-73
2021/09/09 03:38:11;;;;;;;8.83;6.00;;;;;;;13.23;100.00;100988.16;5069432;28;20445;-73
2021/09/09 03:40:37;;;;;;;11.20;5.30;;;;;;;13.23;100.00;100988.16;5070110;28;20466;-73
2021/09/09 03:43:05;;;;;;;8.10;5.83;;;;;;;13.22;100.00;100986.53;5056818;28;20454;-73
2021/09/09 03:45:31;;;;;;;10.27;6.00;;;;;;;13.23;100.00;100983.53;5056715;28;20442;-73
2021/09/09 03:47:58;;;;;;;8.10;4.80;;;;;;;13.22;100.00;100981.09;5056764;28;20461;-73
2021/09/09 03:50:24;;;;;;;9.50;6.20;;;;;;;13.18;100.00;100986.34;5060050;28;20472;-73
2021/09/09 03:52:51;;;;;;;10.90;5.70;;;;;;;13.09;100.00;100975.41;5075415;28;20453;-73
2021/09/09 03:55:17;;;;;;;9.87;6.80;;;;;;;13.01;100.00;100980.78;5062563;28;20489;-73
2021/09/09 03:57:44;;;;;;;12.27;6.70;;;;;;;12.91;100.00;100981.00;5064915;28;20445;-73
2021/09/09 04:00:13;;;;;;;10.97;7.00;;;;;;;12.86;100.00;100979.22;5074441;28;20461;-73
2021/09/09 04:02:39;;;;;;;10.00;5.37;;;;;;;12.81;100.00;100966.53;5076550;28;20446;-73
2021/09/09 04:05:07;;;;;;;8.63;5.97;;;;;;;12.79;100.00;100971.50;5072670;28;20471;-73
2021/09/09 04:07:33;;;;;;;7.13;4.60;;;;;;;12.80;100.00;100973.09;5068729;28;20442;-73
2021/09/09 04:09:59;;;;;;;10.37;6.33;;;;;;;12.84;100.00;100967.84;5056214;28;20477;-74
2021/09/09 04:12:26;;;;;;;11.30;7.13;;;;;;;12.90;100.00;100973.97;5076307;28;20456;-73
2021/09/09 04:14:52;;;;;;;10.23;6.20;;;;;;;12.82;100.00;100968.13;5075552;28;20857;-73
2021/09/09 04:17:20;;;;;;;6.03;5.30;;;;;;;12.81;100.00;100963.03;5068609;28;20448;-73
2021/09/09 04:19:46;;;;;;;13.00;7.70;;;;;;;12.78;100.00;100969.88;5056021;28;20476;-73
2021/09/09 04:22:13;;;;;;;7.50;5.47;;;;;;;12.81;100.00;100965.75;5073970;28;20456;-73
2021/09/09 04:24:40;;;;;;;8.73;6.60;;;;;;;12.87;100.00;100961.78;5075738;28;20437;-73
2021/09/09 04:27:07;;;;;;;8.50;6.37;;;;;;;12.89;100.00;100956.84;5075747;28;20468;-73
2021/09/09 04:29:33;;;;;;;10.73;5.50;;;;;;;12.88;100.00;100960.66;5075191;28;20465;-74
2021/09/09 04:32:00;;;;;;;5.53;4.10;;;;;;;12.88;100.00;100957.94;5055840;28;20449;-72
2021/09/09 04:34:28;;;;;;;13.93;5.40;;;;;;;12.84;100.00;100954.25;5055677;28;20488;-73
2021/09/09 04:36:54;;;;;;;6.73;4.57;;;;;;;12.81;100.00;100952.94;5057460;28;20464;-74
2021/09/09 04:39:23;;;;;;;9.03;5.37;;;;;;;12.80;100.00;100951.34;5075930;28;20469;-74
2021/09/09 04:42:00;;;;;;;6.33;4.67;;;;;;;12.79;100.00;100944.31;5072175;28;20442;-74
2021/09/09 04:44:27;;;;;;;7.93;4.73;;;;;;;12.84;100.00;100955.06;5064229;28;20477;-74
2021/09/09 04:46:53;;;;;;;6.03;4.40;;;;;;;12.86;100.00;100947.38;5073186;28;20472;-74
2021/09/09 04:49:20;;;;;;;11.03;6.47;;;;;;;12.75;100.00;100945.19;5071123;28;20477;-74
2021/09/09 04:51:48;;;;;;;9.67;6.47;;;;;;;12.77;100.00;100946.50;5059877;28;20451;-74
2021/09/09 04:54:14;;;;;;;6.70;5.33;;;;;;;12.76;100.00;100936.75;5055532;28;20442;-73
2021/09/09 04:56:40;;;;;;;10.07;6.87;;;;;;;12.63;100.00;100941.13;5055655;28;20438;-74
2021/09/09 04:59:07;;;;;;;7.67;5.43;;;;;;;12.58;100.00;100938.50;5055464;28;20467;-73
2021/09/09 05:01:33;;;;;;;9.30;6.60;;;;;;;12.57;100.00;100930.66;5056500;28;20453;-73
2021/09/09 05:04:00;;;;;;;7.03;5.30;;;;;;;12.58;100.00;100933.09;5073434;28;20445;-73
2021/09/09 05:06:26;;;;;;;8.53;5.30;;;;;;;12.56;100.00;100931.78;5075290;28;20441;-73
2021/09/09 05:08:54;;;;;;;8.10;4.73;;;;;;;12.59;100.00;100931.16;5075045;28;20455;-73
2021/09/09 05:11:21;;;;;;;7.93;5.60;;;;;;;12.61;100.00;100931.66;5075126;28;20477;-73
2021/09/09 05:13:47;;;;;;;8.87;6.70;;;;;;;12.68;100.00;100929.31;5074057;28;20441;-73
2021/09/09 05:16:14;;;;;;;5.93;4.60;;;;;;;12.75;100.00;100932.44;5074812;28;20488;-73
2021/09/09 05:18:40;;;;;;;10.77;5.67;;;;;;;12.80;100.00;100926.88;5074459;28;20931;-73
2021/09/09 05:21:07;;;;;;;7.83;5.60;;;;;;;12.88;100.00;100920.72;5075001;28;20437;-73
2021/09/09 05:23:33;;;;;;;9.80;5.93;;;;;;;12.90;100.00;100919.59;5071941;28;20444;-73
2021/09/09 05:26:01;;;;;;;10.07;6.90;;;;;;;12.96;100.00;100918.34;5074910;28;20441;-71
2021/09/09 05:28:27;;;;;;;8.00;5.13;;;;;;;12.97;100.00;100922.66;5074842;28;20437;-73
2021/09/09 05:30:54;;;;;;;10.53;5.77;;;;;;;13.06;100.00;100912.69;5064401;28;20492;-73
2021/09/09 05:33:21;;;;;;;7.60;6.00;;;;;;;13.18;100.00;100915.63;5054835;28;20549;-73
2021/09/09 05:35:47;;;;;;;8.07;5.20;;;;;;;13.23;100.00;100912.81;5054753;28;20474;-73
2021/09/09 05:38:14;;;;;;;12.53;7.30;;;;;;;13.34;100.00;100914.16;5054588;28;20470;-73
2021/09/09 05:40:41;;;;;;;10.43;6.70;;;;;;;13.44;100.00;100913.09;5062949;28;20476;-72
2021/09/09 05:43:08;;;;;;;22.70;6.97;;;;;;;13.58;100.00;100918.44;5074680;28;20441;-73
2021/09/09 05:45:35;;;;;;;8.00;5.57;;;;;;;13.67;100.00;100905.66;5074555;28;20441;-73
2021/09/09 05:48:03;;;;;;;11.93;6.80;;;;;;;13.73;100.00;100904.44;5074498;28;20453;-73
2021/09/09 05:50:29;;;;;;;14.47;7.10;;;;;;;13.80;100.00;100906.69;5069934;28;20995;-74
2021/09/09 05:52:56;;;;;;;7.83;4.70;;;;;;;13.88;100.00;100912.16;5054507;28;20469;-74
2021/09/09 05:55:22;;;;;;;9.10;7.60;;;;;;;13.98;100.00;100899.38;5054269;28;20893;-73
2021/09/09 05:57:49;;;;;;;10.70;5.67;;;;;;;14.06;100.00;100907.56;5054400;28;20813;-73
2021/09/09 06:00:17;;;;;;;8.17;5.53;;;;;;;14.18;100.00;100915.16;5053969;28;20470;-72
2021/09/09 06:02:44;;;;;;;8.90;6.13;;;;;;;14.27;100.00;100917.91;5054173;28;20469;-74
2021/09/09 06:05:12;;;;;;;10.87;6.57;;;;;;;14.36;100.00;100918.72;5054090;28;20442;-74
2021/09/09 06:07:39;;;;;;;13.83;7.40;;;;;;;14.46;100.00;100909.41;5054167;28;20542;-75
2021/09/09 06:10:08;;;;;;;11.97;7.07;;;;;;;14.56;100.00;100920.03;5053807;28;20473;-74
2021/09/09 06:12:35;;;;;;;13.77;7.43;;;;;;;14.64;100.00;100917.31;5054044;28;20442;-74
2021/09/09 06:15:02;;;;;;;9.00;6.97;;;;;;;14.73;100.00;100914.59;5053876;28;20505;-75
2021/09/09 06:17:30;;;;;;;12.60;7.87;;;;;;;14.82;100.00;100918.13;5063596;28;20445;-73
2021/09/09 06:19:57;;;;;;;8.70;5.27;;;;;;;14.89;100.00;100913.00;5070953;28;20474;-74
2021/09/09 06:22:23;;;;;;;14.77;7.00;;;;;;;14.99;100.00;100906.41;5053883;28;20448;-76
2021/09/09 06:24:50;;;;;;;11.83;7.50;;;;;;;15.06;100.00;100905.94;5054951;28;20439;-75
2021/09/09 06:27:16;;;;;;;11.90;7.27;;;;;;;15.14;100.00;100913.31;5073830;28;20445;-73
2021/09/09 06:29:42;;;;;;;13.57;6.40;;;;;;;15.25;100.00;100911.81;5073409;28;20469;-72
2021/09/09 06:32:09;;;;;;;16.57;6.60;;;;;;;15.33;100.00;100911.00;5055547;28;20457;-72
2021/09/09 06:34:37;;;;;;;13.70;6.70;;;;;;;15.39;100.00;100909.69;5053649;28;20446;-73
2021/09/09 06:37:04;;;;;;;7.30;5.73;;;;;;;15.50;100.00;100909.38;5053634;28;20446;-73
2021/09/09 06:39:30;;;;;;;10.73;6.37;;;;;;;15.59;100.00;100915.59;5053455;28;20469;-72
2021/09/09 06:41:56;;;;;;;9.80;6.10;;;;;;;15.66;100.00;100920.56;5053551;28;20501;-73
2021/09/09 06:44:23;;;;;;;12.67;8.03;;;;;;;15.64;98.26;100918.19;5053001;28;20447;-73
2021/09/09 06:46:49;;;;;;;13.63;8.97;;;;;;;15.66;96.63;100918.63;5056734;28;20439;-72
2021/09/09 06:51:45;;;;;;;9.43;6.10;;;;;;;15.86;93.70;100931.59;5030980;28;20537;-72
2021/09/09 06:54:11;;;;;;;11.23;6.70;;;;;;;16.03;93.26;100918.97;5033458;28;20454;-71
2021/09/09 06:56:38;;;;;;;10.13;6.10;;;;;;;16.21;92.54;100923.22;5032816;28;21008;-71
2021/09/09 06:59:04;;;;;;;9.53;6.03;;;;;;;16.34;91.56;100922.16;5033025;28;20951;-70
2021/09/09 07:01:30;;;;;;;10.57;6.10;;;;;;;16.53;89.73;100918.19;5033223;28;20459;-70
2021/09/09 07:03:57;;;;;;;17.30;5.83;;;;;;;16.66;89.23;100917.13;5033412;28;20447;-70
2021/09/09 07:06:23;;;;;;;11.60;6.20;;;;;;;16.77;89.24;100914.78;5033274;28;20435;-70
2021/09/09 07:08:51;;;;;;;9.23;5.73;;;;;;;16.85;87.52;100914.72;5033146;28;20948;-70
2021/09/09 07:11:17;;;;;;;8.40;5.50;;;;;;;17.01;84.57;100919.59;5032759;28;20496;-71
2021/09/09 07:13:44;;;;;;;8.03;5.03;;;;;;;17.12;85.30;100916.09;5032841;28;20932;-69
2021/09/09 07:16:10;;;;;;;7.13;4.30;;;;;;;17.20;85.72;100908.94;5033304;28;20483;-71
2021/09/09 07:18:37;;;;;;;9.50;5.30;;;;;;;17.22;85.89;100901.19;5032872;28;20438;-72
2021/09/09 07:21:04;;;;;;;12.60;5.70;;;;;;;17.28;85.36;100909.97;5033179;28;20473;-72
2021/09/09 07:23:31;;;;;;;9.53;5.00;;;;;;;17.31;84.11;100910.13;5033033;28;20541;-71
2021/09/09 07:25:59;;;;;;;10.30;5.77;;;;;;;17.30;83.48;100913.97;5033169;28;20439;-70
2021/09/09 07:28:25;;;;;;;13.27;5.13;;;;;;;17.37;83.24;100907.94;5032998;28;20446;-71
2021/09/09 07:30:52;;;;;;;10.40;5.50;;;;;;;17.49;79.21;100901.72;5033055;28;20463;-71
2021/09/09 07:33:18;;;;;;;7.53;4.87;;;;;;;17.66;79.06;100912.44;5033164;28;20470;-72
2021/09/09 07:35:44;;;;;;;11.87;4.87;;;;;;;17.73;80.22;100909.94;5032964;28;20479;-71
2021/09/09 07:38:11;;;;;;;8.80;5.07;;;;;;;17.81;81.06;100908.28;5032948;28;20442;-70
2021/09/09 07:40:37;;;;;;;7.93;5.00;;;;;;;17.96;78.55;100912.25;5032600;28;20462;-71
2021/09/09 07:43:05;;;;;;;7.97;5.27;;;;;;;18.02;79.10;100906.22;5032904;28;20455;-71
2021/09/09 07:45:31;;;;;;;13.23;5.00;;;;;;;18.12;74.24;100910.44;5032789;28;20439;-71
2021/09/09 07:47:58;;;;;;;10.70;4.77;;;;;;;18.30;74.20;100911.78;5032939;28;20451;-70
2021/09/09 07:50:25;;;;;;;7.43;4.43;;;;;;;18.41;76.00;100903.88;5032415;28;20991;-72
2021/09/09 07:52:51;;;;;;;12.63;4.80;;;;;;;18.48;76.96;100911.53;5033015;28;20427;-71
2021/09/09 07:55:18;;;;;;;8.07;4.93;;;;;;;18.55;71.89;100908.97;5032751;28;20479;-71
2021/09/09 07:57:46;;;;;;;6.80;4.27;;;;;;;18.76;70.89;100911.59;5032992;28;20573;-71
2021/09/09 08:00:15;;;;;;;4.80;4.10;;;;;;;18.92;71.22;100908.91;5014589;28;20996;-77
2021/09/09 08:02:41;;;;;;;7.30;4.07;;;;;;;19.02;72.85;100902.91;5012602;28;20472;-73
2021/09/09 08:05:09;;;;;;;6.40;4.80;;;;;;;19.08;72.44;100907.81;5012742;28;20949;-70
2021/09/09 08:07:39;;;;;;;5.63;3.80;;;;;;;19.17;69.80;100904.91;5013064;28;20530;-69
2021/09/09 08:10:07;;;;;;;4.23;3.83;;;;;;;19.24;70.15;100907.81;5012978;28;20491;-69
2021/09/09 08:12:34;;;;;;;11.30;4.30;;;;;;;19.34;69.90;100907.31;5012977;28;20448;-69
2021/09/09 08:15:00;;;;;;;7.20;5.00;;;;;;;19.45;69.52;100904.84;5012997;28;20455;-73
2021/09/09 08:17:28;;;;;;;4.60;4.10;;;;;;;19.50;71.00;100912.03;5012890;28;20484;-70
2021/09/09 08:19:54;;;;;;;5.87;3.20;;;;;;;19.49;71.96;100911.22;5012919;28;20491;-70
2021/09/09 08:22:21;;;;;;;7.00;4.00;;;;;;;19.49;72.12;100913.97;5014040;28;20447;-70
2021/09/09 08:24:47;;;;;;;10.63;4.50;;;;;;;19.54;72.33;100907.44;5016618;28;20447;-69
2021/09/09 08:27:14;;;;;;;6.27;4.43;;;;;;;19.59;72.28;100904.41;5016088;28;20817;-70
2021/09/09 08:29:40;;;;;;;6.17;4.10;;;;;;;19.64;72.89;100902.22;5016265;28;20460;-68
2021/09/09 08:32:07;;;;;;;5.23;3.73;;;;;;;19.70;73.89;100911.03;5016388;28;20444;-70
2021/09/09 08:34:35;;;;;;;9.87;4.83;;;;;;;19.76;71.74;100911.53;5016330;28;20448;-70
2021/09/09 08:37:01;;;;;;;7.87;4.53;;;;;;;19.82;71.19;100902.66;5016294;28;20487;-70
2021/09/09 08:39:28;;;;;;;5.73;4.07;;;;;;;19.91;68.47;100914.25;5015810;28;20478;-72
2021/09/09 08:41:54;;;;;;;5.17;3.60;;;;;;;20.02;68.18;100909.03;5016217;28;20516;-72
2021/09/09 08:44:22;;;;;;;5.47;4.20;;;;;;;20.08;68.38;100913.09;5016420;28;20444;-73
2021/09/09 08:46:51;;;;;;;12.20;4.37;;;;;;;20.11;68.69;100915.13;5016077;28;20451;-69
2021/09/09 08:49:24;;;;;;;5.10;3.67;;;;;;;20.23;67.10;100917.00;5015993;28;20440;-72
2021/09/09 08:51:52;;;;;;;4.83;3.60;;;;;;;20.36;66.19;100909.38;5016096;28;20471;-70
2021/09/09 08:54:18;;;;;;;6.47;3.97;;;;;;;20.45;66.92;100912.72;5015779;28;20463;-72
2021/09/09 08:56:45;;;;;;;5.80;3.80;;;;;;;20.50;66.65;100914.47;5015754;28;20503;-74
2021/09/09 08:59:11;;;;;;;6.43;3.60;;;;;;;20.54;67.27;100913.38;5015270;28;20844;-73
2021/09/09 09:01:59;;;;;;;5.53;4.27;;;;;;;20.58;65.86;100921.69;5015333;28;20475;-73
2021/09/09 09:04:26;;;;;;;6.70;4.33;;;;;;;20.65;65.71;100919.09;5014861;28;20432;-71
2021/09/09 09:06:54;;;;;;;4.83;3.63;;;;;;;20.69;66.12;100911.72;5015665;28;20444;-72
2021/09/09 09:09:24;;;;;;;4.37;3.13;;;;;;;20.79;63.50;100916.63;5015577;28;20448;-72
2021/09/09 09:11:51;;;;;;;6.27;4.03;;;;;;;20.87;65.03;100917.59;5015102;28;20974;-69
2021/09/09 09:14:20;;;;;;;3.97;3.30;;;;;;;20.94;65.41;100916.91;5015251;28;20934;-69
2021/09/09 09:16:48;;;;;;;8.30;4.10;;;;;;;20.99;60.09;100908.38;5015079;28;21001;-72
2021/09/09 09:19:16;;;;;;;8.20;3.80;;;;;;;21.09;61.08;100908.56;5015482;28;20791;-71
2021/09/09 09:21:44;;;;;;;4.70;3.43;;;;;;;21.14;61.92;100904.72;5015443;28;20455;-70
2021/09/09 09:24:16;;;;;;;5.40;3.80;;;;;;;21.22;63.59;100902.91;5015399;28;20818;-71
2021/09/09 09:27:07;;;;;;;9.70;4.60;;;;;;;21.39;60.68;100903.25;5015364;28;20432;-72
2021/09/09 09:29:34;;;;;;;5.53;4.20;;;;;;;21.52;61.55;100903.88;5015279;28;20486;-71
2021/09/09 09:32:16;;;;;;;11.20;3.70;;;;;;;21.59;63.46;100894.94;5014846;28;20447;-69
2021/09/09 09:34:44;;;;;;;7.50;4.33;;;;;;;21.62;62.34;100892.22;5014864;28;20448;-71
2021/09/09 09:37:10;;;;;;;6.60;4.20;;;;;;;21.74;59.71;100893.22;5015112;28;20849;-71
2021/09/09 09:39:38;;;;;;;4.80;3.20;;;;;;;21.88;59.87;100891.47;5014970;28;20464;-71
2021/09/09 09:42:07;;;;;;;9.17;3.90;;;;;;;21.88;63.49;100896.19;5015134;28;20450;-71
2021/09/09 09:44:36;;;;;;;4.07;3.53;;;;;;;21.96;62.04;100889.63;5015057;28;20444;-70
2021/09/09 09:47:11;;;;;;;5.10;3.67;;;;;;;22.06;62.25;100888.19;5014991;28;20444;-71
2021/09/09 09:49:42;;;;;;;7.90;4.27;;;;;;;22.07;62.02;100890.56;5014703;28;20467;-71
2021/09/09 09:52:08;;;;;;;6.40;4.50;;;;;;;21.95;61.45;100888.00;5014876;28;20444;-72
2021/09/09 09:54:36;;;;;;;9.77;3.73;;;;;;;22.13;58.12;100882.78;5014865;28;20451;-74
2021/09/09 09:57:04;;;;;;;8.60;4.63;;;;;;;22.30;57.02;100889.72;5014685;28;20484;-69
2021/09/09 09:59:31;;;;;;;9.30;5.00;;;;;;;22.49;57.18;100894.31;5014658;28;20452;-70
2021/09/09 10:02:00;;;;;;;10.43;3.63;;;;;;;22.66;56.84;100893.75;5014552;28;20574;-69
2021/09/09 10:04:26;;;;;;;4.20;3.20;;;;;;;22.69;58.02;100893.00;5014575;28;20448;-72
2021/09/09 10:06:53;;;;;;;6.80;3.47;;;;;;;22.71;59.72;100890.69;5014563;28;20444;-69
2021/09/09 10:09:20;;;;;;;5.70;3.97;;;;;;;22.71;59.11;100893.44;5014080;28;20455;-70
2021/09/09 10:11:48;;;;;;;7.03;3.93;;;;;;;22.85;58.32;100890.84;5014069;28;20460;-71
2021/09/09 10:14:22;;;;;;;9.20;3.77;;;;;;;23.03;56.48;100887.50;5014285;28;20432;-70
2021/09/09 10:16:51;;;;;;;6.00;3.70;;;;;;;23.15;57.16;100889.97;5014169;28;20470;-69
2021/09/09 10:19:26;;;;;;;5.57;3.20;;;;;;;23.13;56.53;100892.34;5014067;28;20444;-69
2021/09/09 10:22:05;;;;;;;9.87;3.23;;;;;;;23.26;55.53;100879.84;5014179;28;20451;-69
2021/09/09 10:24:34;;;;;;;5.70;3.50;;;;;;;23.35;56.67;100891.38;5014265;28;20428;-70
2021/09/09 10:27:24;;;;;;;4.83;3.90;;;;;;;23.45;54.43;100878.81;5013733;28;20867;-69
2021/09/09 10:29:57;;;;;;;4.50;3.50;;;;;;;23.56;53.56;100884.47;5014135;28;20464;-68
2021/09/09 10:32:54;;;;;;;4.83;3.37;;;;;;;23.68;55.35;100875.88;5014148;28;20428;-69
2021/09/09 10:35:40;;;;;;;5.60;3.73;;;;;;;23.78;55.76;100879.94;5013619;28;20526;-69
2021/09/09 10:38:34;;;;;;;3.50;3.20;;;;;;;23.86;53.14;100870.47;5013594;28;20523;-70
2021/09/09 10:41:04;;;;;;;6.60;4.07;;;;;;;24.02;54.55;100876.53;5013910;28;20495;-71
2021/09/09 10:43:51;;;;;;;4.83;3.50;;;;;;;24.17;55.39;100875.44;5013671;28;20980;-69
2021/09/09 10:46:19;;;;;;;5.00;3.23;;;;;;;24.28;55.17;100866.41;5009745;28;20452;-70
2021/09/09 10:49:15;;;;;;;5.37;4.50;;;;;;;24.43;53.67;100876.38;5013827;28;20447;-69
2021/09/09 10:52:13;;;;;;;6.33;4.33;;;;;;;24.57;55.00;100881.19;5013471;28;20502;-70
2021/09/09 10:55:07;;;;;;;5.27;3.83;;;;;;;24.68;55.73;100870.97;4990720;28;20987;-70
2021/09/09 10:57:34;;;;;;;5.43;3.77;;;;;;;24.78;57.89;100869.41;5012985;28;20495;-70
2021/09/09 11:00:03;;;;;;;6.33;3.17;;;;;;;24.86;57.25;100874.56;5013078;28;20473;-70
2021/09/09 11:02:32;;;;;;;6.73;3.60;;;;;;;24.95;54.05;100878.97;5013001;28;20488;-72
2021/09/09 11:05:02;;;;;;;8.27;4.53;;;;;;;25.08;51.25;100869.13;5013055;28;20522;-70
2021/09/09 11:07:31;;;;;;;9.93;4.07;;;;;;;25.20;52.74;100868.75;5012668;28;20950;-70
2021/09/09 11:10:03;;;;;;;4.90;3.43;;;;;;;25.39;52.71;100862.81;5012784;28;20467;-69
2021/09/09 11:12:35;;;;;;;5.80;3.87;;;;;;;25.58;52.29;100864.38;5012762;28;20751;-70
2021/09/09 11:15:03;;;;;;;6.83;4.13;;;;;;;26.23;51.75;100865.13;5012984;28;20447;-70
2021/09/09 11:17:31;;;;;;;8.03;4.23;;;;;;;27.35;50.32;100874.50;5012487;28;20488;-70
2021/09/09 11:20:02;;;;;;;8.40;3.80;;;;;;;28.61;48.25;100863.75;5012706;28;20868;-69
2021/09/09 11:22:29;;;;;;;5.80;4.30;;;;;;;29.70;45.67;100870.91;5012777;28;20449;-69